createdAt,value
2023-05-09T00:00:05.898Z,655.00
2023-05-09T00:01:05.873Z,652.00
2023-05-09T00:02:05.879Z,650.00
2023-05-09T00:03:05.922Z,647.00
2023-05-09T00:04:05.917Z,645.00
2023-05-09T00:05:05.858Z,646.00
2023-05-09T00:06:05.848Z,645.00
2023-05-09T00:07:05.861Z,648.00
2023-05-09T00:08:05.840Z,650.00
2023-05-09T00:09:05.941Z,654.00
2023-05-09T00:10:05.834Z,655.00
2023-05-09T00:11:05.826Z,655.00
2023-05-09T00:12:05.848Z,656.00
2023-05-09T00:13:05.845Z,658.00
2023-05-09T00:14:05.807Z,657.00
2023-05-09T00:15:05.803Z,655.00
2023-05-09T00:16:05.823Z,653.00
2023-05-09T00:17:05.820Z,654.00
2023-05-09T00:18:05.866Z,652.00
2023-05-09T00:19:05.806Z,650.00
2023-05-09T00:20:05.781Z,650.00
2023-05-09T00:21:05.809Z,650.00
2023-05-09T00:22:05.800Z,650.00
2023-05-09T00:23:05.808Z,648.00
2023-05-09T00:24:05.785Z,650.00
2023-05-09T00:25:05.864Z,653.00
2023-05-09T00:26:05.809Z,654.00
2023-05-09T00:27:05.780Z,652.00
2023-05-09T00:28:05.787Z,653.00
2023-05-09T00:29:05.786Z,654.00
2023-05-09T00:30:05.783Z,652.00
2023-05-09T00:31:05.800Z,650.00
2023-05-09T00:32:05.831Z,648.00
2023-05-09T00:33:05.822Z,645.00
2023-05-09T00:34:05.754Z,645.00
2023-05-09T00:35:05.741Z,647.00
2023-05-09T00:36:05.747Z,648.00
2023-05-09T00:37:05.759Z,648.00
2023-05-09T00:38:05.755Z,649.00
2023-05-09T00:39:05.750Z,650.00
2023-05-09T00:40:06.671Z,651.00
2023-05-09T00:41:05.832Z,651.00
2023-05-09T00:42:05.739Z,651.00
2023-05-09T00:43:05.709Z,654.00
2023-05-09T00:44:05.716Z,654.00
2023-05-09T00:45:05.704Z,655.00
2023-05-09T00:46:05.746Z,657.00
2023-05-09T00:47:05.700Z,658.00
2023-05-09T00:48:06.078Z,656.00
2023-05-09T00:49:05.676Z,655.00
2023-05-09T00:50:05.714Z,653.00
2023-05-09T00:51:05.680Z,651.00
2023-05-09T00:52:05.683Z,653.00
2023-05-09T00:53:05.689Z,653.00
2023-05-09T00:54:07.610Z,653.00
2023-05-09T00:55:05.644Z,653.00
2023-05-09T00:56:05.701Z,652.00
2023-05-09T00:57:05.726Z,652.00
2023-05-09T00:58:05.645Z,655.00
2023-05-09T00:59:05.620Z,656.00
2023-05-09T01:00:05.619Z,657.00
2023-05-09T01:01:05.697Z,658.00
2023-05-09T01:02:05.605Z,660.00
2023-05-09T01:03:05.720Z,660.00
2023-05-09T01:04:05.616Z,659.00
2023-05-09T01:05:05.584Z,657.00
2023-05-09T01:06:05.584Z,655.00
2023-05-09T01:07:05.564Z,654.00
2023-05-09T01:08:05.572Z,654.00
2023-05-09T01:09:05.590Z,653.00
2023-05-09T01:10:05.563Z,654.00
2023-05-09T01:11:05.527Z,655.00
2023-05-09T01:12:05.549Z,657.00
2023-05-09T01:13:05.631Z,656.00
2023-05-09T01:14:05.542Z,658.00
2023-05-09T01:15:05.576Z,655.00
2023-05-09T01:16:05.634Z,651.00
2023-05-09T01:17:05.503Z,649.00
2023-05-09T01:18:05.590Z,650.00
2023-05-09T01:19:05.542Z,650.00
2023-05-09T01:20:05.614Z,653.00
2023-05-09T01:21:05.458Z,655.00
2023-05-09T01:22:05.523Z,655.00
2023-05-09T01:23:05.581Z,656.00
2023-05-09T01:24:05.622Z,658.00
2023-05-09T01:25:05.430Z,658.00
2023-05-09T01:26:05.442Z,657.00
2023-05-09T01:27:05.426Z,657.00
2023-05-09T01:28:05.574Z,656.00
2023-05-09T01:29:05.650Z,655.00
2023-05-09T01:30:05.438Z,659.00
2023-05-09T01:31:05.412Z,657.00
2023-05-09T01:32:05.398Z,656.00
2023-05-09T01:33:05.472Z,655.00
2023-05-09T01:34:05.361Z,653.00
2023-05-09T01:35:05.392Z,654.00
2023-05-09T01:36:05.357Z,656.00
2023-05-09T01:37:05.379Z,652.00
2023-05-09T01:38:05.355Z,652.00
2023-05-09T01:39:05.374Z,654.00
2023-05-09T01:40:05.330Z,655.00
2023-05-09T01:41:05.341Z,654.00
2023-05-09T01:42:05.346Z,654.00
2023-05-09T01:43:05.339Z,657.00
2023-05-09T01:44:05.396Z,660.00
2023-05-09T01:45:05.393Z,661.00
2023-05-09T01:46:05.310Z,660.00
2023-05-09T01:47:05.309Z,661.00
2023-05-09T01:48:05.333Z,660.00
2023-05-09T01:49:05.264Z,661.00
2023-05-09T01:50:05.266Z,659.00
2023-05-09T01:51:05.253Z,658.00
2023-05-09T01:52:05.249Z,659.00
2023-05-09T01:53:05.229Z,659.00
2023-05-09T01:54:05.222Z,660.00
2023-05-09T01:55:05.306Z,661.00
2023-05-09T01:56:05.228Z,661.00
2023-05-09T01:57:05.551Z,661.00
2023-05-09T01:58:05.209Z,664.00
2023-05-09T01:59:05.194Z,662.00
2023-05-09T02:00:05.223Z,661.00
2023-05-09T02:01:05.297Z,663.00
2023-05-09T02:02:05.201Z,662.00
2023-05-09T02:03:05.263Z,661.00
2023-05-09T02:04:05.176Z,659.00
2023-05-09T02:05:05.163Z,659.00
2023-05-09T02:06:05.140Z,658.00
2023-05-09T02:07:05.154Z,657.00
2023-05-09T02:08:05.150Z,657.00
2023-05-09T02:09:05.121Z,656.00
2023-05-09T02:10:05.127Z,655.00
2023-05-09T02:11:05.153Z,656.00
2023-05-09T02:12:05.110Z,656.00
2023-05-09T02:13:05.141Z,656.00
2023-05-09T02:14:05.077Z,656.00
2023-05-09T02:15:05.089Z,656.00
2023-05-09T02:16:05.100Z,655.00
2023-05-09T02:17:05.184Z,655.00
2023-05-09T02:18:05.079Z,657.00
2023-05-09T02:19:05.050Z,655.00
2023-05-09T02:20:05.046Z,654.00
2023-05-09T02:21:05.057Z,654.00
2023-05-09T02:22:05.145Z,656.00
2023-05-09T02:23:05.056Z,656.00
2023-05-09T02:24:05.034Z,655.00
2023-05-09T02:25:05.015Z,657.00
2023-05-09T02:26:04.998Z,656.00
2023-05-09T02:27:04.987Z,655.00
2023-05-09T02:28:04.995Z,654.00
2023-05-09T02:29:05.557Z,654.00
2023-05-09T02:30:04.986Z,652.00
2023-05-09T02:31:04.958Z,651.00
2023-05-09T02:32:05.024Z,648.00
2023-05-09T02:33:05.202Z,647.00
2023-05-09T02:34:05.098Z,646.00
2023-05-09T02:35:04.926Z,646.00
2023-05-09T02:36:04.923Z,647.00
2023-05-09T02:37:04.926Z,646.00
2023-05-09T02:38:04.920Z,646.00
2023-05-09T02:39:04.993Z,648.00
2023-05-09T02:40:04.907Z,649.00
2023-05-09T02:41:04.887Z,648.00
2023-05-09T02:42:04.882Z,648.00
2023-05-09T02:43:04.867Z,653.00
2023-05-09T02:44:04.881Z,653.00
2023-05-09T02:45:04.856Z,651.00
2023-05-09T02:46:04.854Z,652.00
2023-05-09T02:47:04.858Z,649.00
2023-05-09T02:48:07.576Z,649.00
2023-05-09T02:49:04.926Z,649.00
2023-05-09T02:50:04.861Z,652.00
2023-05-09T02:51:04.835Z,655.00
2023-05-09T02:52:04.822Z,655.00
2023-05-09T02:53:04.811Z,656.00
2023-05-09T02:54:04.801Z,657.00
2023-05-09T02:55:04.810Z,655.00
2023-05-09T02:56:04.767Z,653.00
2023-05-09T02:57:04.778Z,653.00
2023-05-09T02:58:13.359Z,654.00
2023-05-09T02:59:06.110Z,654.00
2023-05-09T03:00:04.742Z,654.00
2023-05-09T03:01:04.755Z,655.00
2023-05-09T03:02:04.742Z,654.00
2023-05-09T03:03:04.839Z,652.00
2023-05-09T03:04:04.776Z,649.00
2023-05-09T03:05:04.798Z,651.00
2023-05-09T03:06:04.701Z,653.00
2023-05-09T03:07:04.704Z,654.00
2023-05-09T03:08:04.684Z,655.00
2023-05-09T03:09:04.701Z,655.00
2023-05-09T03:10:04.692Z,655.00
2023-05-09T03:11:04.689Z,654.00
2023-05-09T03:12:04.668Z,654.00
2023-05-09T03:13:04.726Z,655.00
2023-05-09T03:14:04.660Z,656.00
2023-05-09T03:15:04.634Z,656.00
2023-05-09T03:16:04.675Z,656.00
2023-05-09T03:17:04.652Z,657.00
2023-05-09T03:18:04.637Z,658.00
2023-05-09T03:19:04.644Z,658.00
2023-05-09T03:20:04.687Z,657.00
2023-05-09T03:21:04.683Z,656.00
2023-05-09T03:22:04.581Z,655.00
2023-05-09T03:23:04.598Z,652.00
2023-05-09T03:24:04.620Z,651.00
2023-05-09T03:25:04.599Z,654.00
2023-05-09T03:26:04.562Z,655.00
2023-05-09T03:27:04.579Z,655.00
2023-05-09T03:28:04.556Z,653.00
2023-05-09T03:29:04.548Z,656.00
2023-05-09T03:30:04.522Z,657.00
2023-05-09T03:31:04.585Z,657.00
2023-05-09T03:32:04.534Z,658.00
2023-05-09T03:33:04.579Z,657.00
2023-05-09T03:34:04.513Z,657.00
2023-05-09T03:35:04.541Z,657.00
2023-05-09T03:36:04.490Z,656.00
2023-05-09T03:37:04.605Z,657.00
2023-05-09T03:38:04.505Z,657.00
2023-05-09T03:39:04.506Z,656.00
2023-05-09T03:40:04.525Z,653.00
2023-05-09T03:41:04.575Z,652.00
2023-05-09T03:42:04.537Z,652.00
2023-05-09T03:43:04.597Z,652.00
2023-05-09T03:44:04.607Z,652.00
2023-05-09T03:45:04.565Z,653.00
2023-05-09T03:46:04.572Z,655.00
2023-05-09T03:47:04.693Z,654.00
2023-05-09T03:48:04.706Z,654.00
2023-05-09T03:49:04.595Z,655.00
2023-05-09T03:50:04.607Z,655.00
2023-05-09T03:51:04.651Z,652.00
2023-05-09T03:52:04.645Z,650.00
2023-05-09T03:53:04.756Z,649.00
2023-05-09T03:54:04.661Z,649.00
2023-05-09T03:55:04.699Z,647.00
2023-05-09T03:56:04.666Z,646.00
2023-05-09T03:57:04.705Z,646.00
2023-05-09T03:58:04.717Z,647.00
2023-05-09T03:59:04.706Z,647.00
2023-05-09T04:00:04.737Z,648.00
2023-05-09T04:01:04.724Z,649.00
2023-05-09T04:02:04.797Z,650.00
2023-05-09T04:03:04.807Z,651.00
2023-05-09T04:04:04.893Z,650.00
2023-05-09T04:05:04.772Z,654.00
2023-05-09T04:06:04.792Z,653.00
2023-05-09T04:07:04.808Z,652.00
2023-05-09T04:08:04.843Z,653.00
2023-05-09T04:09:04.890Z,655.00
2023-05-09T04:10:04.835Z,651.00
2023-05-09T04:11:04.833Z,650.00
2023-05-09T04:12:04.849Z,651.00
2023-05-09T04:13:04.961Z,653.00
2023-05-09T04:14:04.907Z,652.00
2023-05-09T04:15:05.023Z,654.00
2023-05-09T04:16:04.918Z,650.00
2023-05-09T04:17:04.991Z,649.00
2023-05-09T04:18:05.161Z,652.00
2023-05-09T04:19:04.947Z,653.00
2023-05-09T04:20:04.951Z,656.00
2023-05-09T04:21:04.976Z,655.00
2023-05-09T04:22:05.002Z,652.00
2023-05-09T04:23:05.025Z,652.00
2023-05-09T04:24:05.031Z,653.00
2023-05-09T04:25:05.122Z,654.00
2023-05-09T04:26:05.024Z,656.00
2023-05-09T04:27:05.047Z,657.00
2023-05-09T04:28:05.057Z,657.00
2023-05-09T04:29:05.128Z,657.00
2023-05-09T04:30:05.068Z,656.00
2023-05-09T04:31:05.121Z,654.00
2023-05-09T04:32:05.183Z,655.00
2023-05-09T04:33:05.117Z,654.00
2023-05-09T04:34:05.130Z,655.00
2023-05-09T04:35:05.219Z,655.00
2023-05-09T04:36:05.141Z,656.00
2023-05-09T04:37:05.107Z,655.00
2023-05-09T04:38:05.147Z,657.00
2023-05-09T04:39:05.178Z,657.00
2023-05-09T04:40:05.177Z,659.00
2023-05-09T04:41:05.235Z,660.00
2023-05-09T04:42:05.180Z,662.00
2023-05-09T04:43:05.178Z,660.00
2023-05-09T04:44:05.272Z,660.00
2023-05-09T04:45:05.220Z,661.00
2023-05-09T04:46:05.287Z,660.00
2023-05-09T04:47:05.255Z,658.00
2023-05-09T04:48:05.386Z,658.00
2023-05-09T04:49:05.309Z,658.00
2023-05-09T04:50:05.336Z,656.00
2023-05-09T04:51:05.304Z,655.00
2023-05-09T04:52:05.315Z,655.00
2023-05-09T04:53:05.323Z,656.00
2023-05-09T04:54:05.403Z,659.00
2023-05-09T04:55:05.368Z,659.00
2023-05-09T04:56:05.440Z,658.00
2023-05-09T04:57:16.534Z,658.00
2023-05-09T04:58:06.491Z,658.00
2023-05-09T04:59:05.384Z,657.00
2023-05-09T05:00:05.365Z,658.00
2023-05-09T05:01:05.351Z,656.00
2023-05-09T05:02:05.434Z,655.00
2023-05-09T05:03:05.430Z,655.00
2023-05-09T05:04:05.327Z,655.00
2023-05-09T05:05:11.679Z,655.00
2023-05-09T05:06:06.332Z,655.00
2023-05-09T05:07:05.329Z,654.00
2023-05-09T05:08:05.322Z,650.00
2023-05-09T05:09:05.309Z,651.00
2023-05-09T05:10:05.338Z,652.00
2023-05-09T05:11:05.270Z,652.00
2023-05-09T05:12:06.693Z,653.00
2023-05-09T05:13:05.419Z,651.00
2023-05-09T05:14:05.253Z,651.00
2023-05-09T05:15:05.268Z,651.00
2023-05-09T05:16:06.176Z,651.00
2023-05-09T05:17:05.261Z,651.00
2023-05-09T05:18:05.345Z,650.00
2023-05-09T05:19:05.241Z,649.00
2023-05-09T05:20:05.221Z,650.00
2023-05-09T05:21:05.223Z,652.00
2023-05-09T05:22:05.199Z,653.00
2023-05-09T05:23:05.239Z,655.00
2023-05-09T05:24:05.235Z,656.00
2023-05-09T05:25:05.181Z,658.00
2023-05-09T05:26:05.240Z,657.00
2023-05-09T05:27:05.171Z,657.00
2023-05-09T05:28:05.199Z,654.00
2023-05-09T05:29:05.233Z,654.00
2023-05-09T05:30:05.142Z,654.00
2023-05-09T05:31:05.181Z,654.00
2023-05-09T05:32:05.165Z,641.00
2023-05-09T05:33:05.204Z,602.00
2023-05-09T05:34:05.112Z,598.00
2023-05-09T05:35:05.129Z,583.00
2023-05-09T05:36:05.096Z,683.00
2023-05-09T05:37:05.088Z,678.00
2023-05-09T05:38:05.087Z,668.00
2023-05-09T05:39:05.099Z,695.00
2023-05-09T05:40:05.074Z,718.00
2023-05-09T05:41:05.101Z,698.00
2023-05-09T05:42:05.062Z,969.00
2023-05-09T05:43:05.079Z,779.00
2023-05-09T05:44:05.089Z,819.00
2023-05-09T05:45:05.183Z,946.00
2023-05-09T05:46:05.075Z,897.00
2023-05-09T05:47:05.025Z,941.00
2023-05-09T05:48:05.023Z,1023.00
2023-05-09T05:49:05.023Z,1038.00
2023-05-09T05:50:04.999Z,1041.00
2023-05-09T05:51:05.001Z,1048.00
2023-05-09T05:52:04.966Z,1117.00
2023-05-09T05:53:04.998Z,1121.00
2023-05-09T05:54:05.021Z,1122.00
2023-05-09T05:55:04.951Z,1140.00
2023-05-09T05:56:04.955Z,1152.00
2023-05-09T05:57:04.954Z,1163.00
2023-05-09T05:58:05.000Z,1175.00
2023-05-09T05:59:04.925Z,1129.00
2023-05-09T06:00:04.930Z,1237.00
2023-05-09T06:01:05.024Z,1262.00
2023-05-09T06:02:05.049Z,1268.00
2023-05-09T06:03:05.188Z,1271.00
2023-05-09T06:04:05.198Z,1267.00
2023-05-09T06:05:05.119Z,1306.00
2023-05-09T06:06:05.168Z,1324.00
2023-05-09T06:07:05.191Z,1324.00
2023-05-09T06:08:05.194Z,1321.00
2023-05-09T06:09:05.666Z,1326.00
2023-05-09T06:10:05.250Z,1330.00
2023-05-09T06:11:05.264Z,1297.00
2023-05-09T06:12:05.274Z,1327.00
2023-05-09T06:13:05.354Z,1359.00
2023-05-09T06:14:05.303Z,1400.00
2023-05-09T06:15:05.312Z,1393.00
2023-05-09T06:16:18.488Z,1389.00
2023-05-09T06:17:06.458Z,1395.00
2023-05-09T06:18:05.413Z,1399.00
2023-05-09T06:19:05.324Z,1402.00
2023-05-09T06:20:05.306Z,1415.00
2023-05-09T06:21:05.302Z,1485.00
2023-05-09T06:22:05.296Z,1472.00
2023-05-09T06:23:05.402Z,1454.00
2023-05-09T06:24:11.758Z,1471.00
2023-05-09T06:25:08.041Z,1471.00
2023-05-09T06:26:06.181Z,1470.00
2023-05-09T06:27:05.258Z,1485.00
2023-05-09T06:28:05.309Z,1479.00
2023-05-09T06:29:05.294Z,1474.00
2023-05-09T06:30:14.209Z,1414.00
2023-05-09T06:31:06.319Z,1411.00
2023-05-09T06:32:05.219Z,1414.00
2023-05-09T06:33:05.435Z,1430.00
2023-05-09T06:34:05.360Z,1460.00
2023-05-09T06:35:05.204Z,1486.00
2023-05-09T06:36:06.208Z,1416.00
2023-05-09T06:37:05.218Z,1432.00
2023-05-09T06:38:05.675Z,1483.00
2023-05-09T06:39:05.654Z,1477.00
2023-05-09T06:40:05.292Z,1062.00
2023-05-09T06:41:05.349Z,1040.00
2023-05-09T06:42:05.320Z,1075.00
2023-05-09T06:43:05.370Z,1187.00
2023-05-09T06:44:05.671Z,1197.00
2023-05-09T06:45:05.404Z,1276.00
2023-05-09T06:46:05.473Z,1286.00
2023-05-09T06:47:05.411Z,1308.00
2023-05-09T06:48:05.505Z,1295.00
2023-05-09T06:49:05.598Z,1276.00
2023-05-09T06:50:05.534Z,1360.00
2023-05-09T06:51:05.561Z,1349.00
2023-05-09T06:52:05.649Z,1388.00
2023-05-09T06:53:05.658Z,1425.00
2023-05-09T06:54:05.736Z,1433.00
2023-05-09T06:55:05.905Z,1429.00
2023-05-09T06:56:05.856Z,1410.00
2023-05-09T06:57:05.922Z,1403.00
2023-05-09T06:58:06.006Z,1396.00
2023-05-09T06:59:06.077Z,1408.00
2023-05-09T07:00:06.109Z,1404.00
2023-05-09T07:01:06.193Z,1407.00
2023-05-09T07:02:06.376Z,1414.00
2023-05-09T07:03:06.369Z,1436.00
2023-05-09T07:04:06.330Z,1503.00
2023-05-09T07:05:06.521Z,1495.00
2023-05-09T07:06:06.444Z,1488.00
2023-05-09T07:07:06.493Z,1450.00
2023-05-09T07:08:06.554Z,1470.00
2023-05-09T07:09:06.565Z,1469.00
2023-05-09T07:11:06.684Z,1412.00
2023-05-09T07:12:06.680Z,1524.00
2023-05-09T07:13:07.328Z,1527.00
2023-05-09T07:14:06.786Z,1574.00
2023-05-09T07:15:06.907Z,1517.00
2023-05-09T07:16:06.903Z,1514.00
2023-05-09T07:17:21.740Z,1523.00
2023-05-09T07:18:07.949Z,1588.00
2023-05-09T07:19:07.835Z,1610.00
2023-05-09T07:20:06.944Z,1608.00
2023-05-09T07:21:07.075Z,1603.00
2023-05-09T07:22:06.901Z,1602.00
2023-05-09T07:23:06.899Z,1600.00
2023-05-09T07:24:07.001Z,1595.00
2023-05-09T07:25:06.878Z,1591.00
2023-05-09T07:26:06.888Z,1611.00
2023-05-09T07:27:06.862Z,1605.00
2023-05-09T07:28:07.690Z,1592.00
2023-05-09T07:29:06.839Z,1604.00
2023-05-09T07:30:06.883Z,1623.00
2023-05-09T07:31:06.836Z,1595.00
2023-05-09T07:32:06.969Z,1550.00
2023-05-09T07:33:06.975Z,1617.00
2023-05-09T07:34:07.199Z,1614.00
2023-05-09T07:35:06.849Z,1623.00
2023-05-09T07:36:06.893Z,1763.00
2023-05-09T07:37:06.966Z,1637.00
2023-05-09T07:38:06.903Z,1713.00
2023-05-09T07:39:07.244Z,1377.00
2023-05-09T07:40:07.138Z,1367.00
2023-05-09T07:41:07.134Z,1289.00
2023-05-09T07:42:07.045Z,1313.00
2023-05-09T07:43:07.114Z,1246.00
2023-05-09T07:44:07.152Z,1242.00
2023-05-09T07:45:07.181Z,1324.00
2023-05-09T07:46:07.400Z,1349.00
2023-05-09T07:47:07.246Z,1366.00
2023-05-09T07:48:07.323Z,1364.00
2023-05-09T07:49:07.346Z,1372.00
2023-05-09T07:50:07.370Z,1373.00
2023-05-09T07:51:07.383Z,1379.00
2023-05-09T07:52:07.440Z,1383.00
2023-05-09T07:53:07.740Z,1373.00
2023-05-09T07:54:07.702Z,1390.00
2023-05-09T07:55:07.590Z,1395.00
2023-05-09T07:56:07.527Z,1406.00
2023-05-09T07:57:07.654Z,1415.00
2023-05-09T07:58:07.595Z,1421.00
2023-05-09T07:59:07.719Z,1438.00
2023-05-09T08:00:07.728Z,1432.00
2023-05-09T08:01:07.612Z,1511.00
2023-05-09T08:02:07.677Z,1518.00
2023-05-09T08:03:07.839Z,1520.00
2023-05-09T08:04:07.820Z,1556.00
2023-05-09T08:05:07.624Z,1587.00
2023-05-09T08:06:07.576Z,1604.00
2023-05-09T08:07:07.612Z,1617.00
2023-05-09T08:08:07.569Z,1608.00
2023-05-09T08:09:07.675Z,1438.00
2023-05-09T08:10:07.596Z,1487.00
2023-05-09T08:11:07.619Z,1555.00
2023-05-09T08:12:07.649Z,1482.00
2023-05-09T08:13:07.735Z,1432.00
2023-05-09T08:14:07.688Z,1418.00
2023-05-09T08:15:07.699Z,1419.00
2023-05-09T08:16:07.798Z,1506.00
2023-05-09T08:17:07.733Z,1488.00
2023-05-09T08:18:07.813Z,1460.00
2023-05-09T08:19:07.812Z,1446.00
2023-05-09T08:20:07.853Z,1247.00
2023-05-09T08:21:07.844Z,1247.00
2023-05-09T08:22:07.890Z,1286.00
2023-05-09T08:23:07.877Z,1369.00
2023-05-09T08:24:08.364Z,1361.00
2023-05-09T08:25:07.966Z,1363.00
2023-05-09T08:26:07.897Z,1345.00
2023-05-09T08:27:07.933Z,1348.00
2023-05-09T08:28:07.901Z,1342.00
2023-05-09T08:29:08.265Z,1325.00
2023-05-09T08:30:07.967Z,1317.00
2023-05-09T08:31:07.963Z,1307.00
2023-05-09T08:32:07.954Z,1302.00
2023-05-09T08:33:08.057Z,1297.00
2023-05-09T08:34:08.033Z,1293.00
2023-05-09T08:35:08.030Z,1283.00
2023-05-09T08:36:08.058Z,1277.00
2023-05-09T08:37:08.054Z,1275.00
2023-05-09T08:38:08.185Z,1269.00
2023-05-09T08:39:08.230Z,1263.00
2023-05-09T08:40:08.219Z,1250.00
2023-05-09T08:41:08.254Z,1245.00
2023-05-09T08:42:08.249Z,1241.00
2023-05-09T08:43:08.261Z,1245.00
2023-05-09T08:44:08.397Z,1358.00
2023-05-09T08:45:08.373Z,1385.00
2023-05-09T08:46:08.512Z,1405.00
2023-05-09T08:47:08.400Z,1402.00
2023-05-09T08:48:08.447Z,1417.00
2023-05-09T08:49:08.472Z,1431.00
2023-05-09T08:50:08.786Z,1432.00
2023-05-09T08:51:08.619Z,1453.00
2023-05-09T08:52:08.504Z,1565.00
2023-05-09T08:53:08.520Z,1561.00
2023-05-09T08:54:08.720Z,1598.00
2023-05-09T08:55:08.484Z,1600.00
2023-05-09T08:56:08.499Z,1601.00
2023-05-09T08:57:08.610Z,1607.00
2023-05-09T08:58:08.476Z,1614.00
2023-05-09T08:59:08.516Z,1621.00
2023-05-09T09:00:08.520Z,1729.00
2023-05-09T09:01:08.502Z,1763.00
2023-05-09T09:02:08.719Z,1758.00
2023-05-09T09:03:08.611Z,1737.00
2023-05-09T09:04:08.656Z,1740.00
2023-05-09T09:05:19.670Z,1725.00
2023-05-09T09:06:09.666Z,1723.00
2023-05-09T09:07:08.757Z,1730.00
2023-05-09T09:08:08.714Z,1797.00
2023-05-09T09:09:08.648Z,1792.00
2023-05-09T09:10:08.674Z,1794.00
2023-05-09T09:11:08.658Z,1691.00
2023-05-09T09:12:08.624Z,1717.00
2023-05-09T09:13:08.712Z,1735.00
2023-05-09T09:14:08.715Z,1735.00
2023-05-09T09:15:08.844Z,1715.00
2023-05-09T09:16:08.949Z,1686.00
2023-05-09T09:17:08.926Z,1565.00
2023-05-09T09:18:09.122Z,1567.00
2023-05-09T09:19:09.089Z,1646.00
2023-05-09T09:20:09.060Z,1649.00
2023-05-09T09:21:09.146Z,1647.00
2023-05-09T09:22:09.218Z,1650.00
2023-05-09T09:23:09.259Z,1664.00
2023-05-09T09:24:09.853Z,1711.00
2023-05-09T09:25:09.383Z,1727.00
2023-05-09T09:26:09.430Z,1725.00
2023-05-09T09:27:09.496Z,1734.00
2023-05-09T09:28:09.580Z,1744.00
2023-05-09T09:29:09.690Z,1733.00
2023-05-09T09:30:09.653Z,1522.00
2023-05-09T09:31:09.798Z,1461.00
2023-05-09T09:32:09.808Z,1454.00
2023-05-09T09:33:09.845Z,1453.00
2023-05-09T09:34:10.248Z,1444.00
2023-05-09T09:35:09.917Z,1439.00
2023-05-09T09:36:10.110Z,1448.00
2023-05-09T09:37:10.094Z,1453.00
2023-05-09T09:38:10.176Z,1467.00
2023-05-09T09:39:10.236Z,1461.00
2023-05-09T09:40:10.200Z,1456.00
2023-05-09T09:41:10.209Z,1462.00
2023-05-09T09:42:10.223Z,1461.00
2023-05-09T09:43:10.246Z,1456.00
2023-05-09T09:44:10.234Z,1453.00
2023-05-09T09:45:10.321Z,1450.00
2023-05-09T09:46:10.309Z,1447.00
2023-05-09T09:47:10.217Z,1435.00
2023-05-09T09:48:10.267Z,1424.00
2023-05-09T09:49:10.258Z,1419.00
2023-05-09T09:50:10.261Z,1416.00
2023-05-09T09:51:10.236Z,1412.00
2023-05-09T09:52:10.227Z,1414.00
2023-05-09T09:53:10.235Z,1416.00
2023-05-09T09:54:10.252Z,1424.00
2023-05-09T09:55:10.241Z,1438.00
2023-05-09T09:56:10.221Z,1451.00
2023-05-09T09:57:10.220Z,1459.00
2023-05-09T09:58:10.238Z,1463.00
2023-05-09T09:59:10.235Z,1473.00
2023-05-09T10:00:10.268Z,1480.00
2023-05-09T10:01:10.263Z,1507.00
2023-05-09T10:02:10.208Z,1534.00
2023-05-09T10:03:10.270Z,1545.00
2023-05-09T10:04:10.283Z,1557.00
2023-05-09T10:05:10.757Z,1567.00
2023-05-09T10:06:10.186Z,1572.00
2023-05-09T10:07:12.802Z,1583.00
2023-05-09T10:08:10.212Z,1590.00
2023-05-09T10:09:10.181Z,1598.00
2023-05-09T10:10:10.277Z,1610.00
2023-05-09T10:11:10.180Z,1628.00
2023-05-09T10:12:10.254Z,1623.00
2023-05-09T10:13:10.230Z,1619.00
2023-05-09T10:14:10.188Z,1619.00
2023-05-09T10:15:10.142Z,1630.00
2023-05-09T10:16:10.280Z,1644.00
2023-05-09T10:17:10.268Z,1661.00
2023-05-09T10:18:10.277Z,1677.00
2023-05-09T10:19:10.129Z,1693.00
2023-05-09T10:20:10.773Z,1714.00
2023-05-09T10:21:10.170Z,1725.00
2023-05-09T10:22:10.117Z,1736.00
2023-05-09T10:23:10.092Z,1748.00
2023-05-09T10:24:10.165Z,1764.00
2023-05-09T10:25:10.059Z,1785.00
2023-05-09T10:26:10.051Z,1838.00
2023-05-09T10:27:10.048Z,1799.00
2023-05-09T10:28:10.050Z,1271.00
2023-05-09T10:29:10.073Z,1136.00
2023-05-09T10:30:10.011Z,1120.00
2023-05-09T10:31:10.130Z,1187.00
2023-05-09T10:32:10.037Z,1212.00
2023-05-09T10:33:10.200Z,1321.00
2023-05-09T10:34:10.076Z,1332.00
2023-05-09T10:35:09.980Z,1431.00
2023-05-09T10:36:10.005Z,1487.00
2023-05-09T10:37:09.973Z,1508.00
2023-05-09T10:38:09.954Z,1570.00
2023-05-09T10:39:09.960Z,1570.00
2023-05-09T10:40:09.978Z,1596.00
2023-05-09T10:41:09.977Z,1661.00
2023-05-09T10:42:09.959Z,1682.00
2023-05-09T10:43:09.946Z,1696.00
2023-05-09T10:44:09.953Z,1703.00
2023-05-09T10:45:09.926Z,1706.00
2023-05-09T10:46:09.986Z,1735.00
2023-05-09T10:47:09.993Z,1775.00
2023-05-09T10:48:10.078Z,1825.00
2023-05-09T10:49:10.152Z,1808.00
2023-05-09T10:50:10.210Z,1809.00
2023-05-09T10:51:10.241Z,1902.00
2023-05-09T10:52:10.306Z,1894.00
2023-05-09T10:53:10.357Z,1894.00
2023-05-09T10:54:10.410Z,1902.00
2023-05-09T10:55:10.471Z,1943.00
2023-05-09T10:56:10.539Z,1948.00
2023-05-09T10:57:10.563Z,1966.00
2023-05-09T10:58:10.615Z,1973.00
2023-05-09T10:59:10.704Z,1977.00
2023-05-09T11:00:10.718Z,1985.00
2023-05-09T11:01:10.778Z,2000.00
2023-05-09T11:02:10.802Z,2021.00
2023-05-09T11:03:10.987Z,2078.00
2023-05-09T11:04:10.901Z,2095.00
2023-05-09T11:05:11.041Z,2083.00
2023-05-09T11:06:10.966Z,2074.00
2023-05-09T11:07:11.041Z,2074.00
2023-05-09T11:08:11.080Z,2074.00
2023-05-09T11:09:11.096Z,2073.00
2023-05-09T11:10:11.153Z,2090.00
2023-05-09T11:11:11.169Z,2113.00
2023-05-09T11:12:11.225Z,2113.00
2023-05-09T11:13:11.307Z,2105.00
2023-05-09T11:14:11.382Z,2136.00
2023-05-09T11:15:11.328Z,2177.00
2023-05-09T11:16:11.411Z,2175.00
2023-05-09T11:17:11.428Z,2185.00
2023-05-09T11:18:11.502Z,2196.00
2023-05-09T11:19:11.456Z,2057.00
2023-05-09T11:20:11.809Z,1628.00
2023-05-09T11:21:11.649Z,1655.00
2023-05-09T11:22:11.586Z,1801.00
2023-05-09T11:23:11.615Z,1798.00
2023-05-09T11:24:11.664Z,1692.00
2023-05-09T11:25:11.762Z,1676.00
2023-05-09T11:26:11.765Z,1665.00
2023-05-09T11:27:11.854Z,1655.00
2023-05-09T11:28:11.926Z,1559.00
2023-05-09T11:29:12.000Z,1558.00
2023-05-09T11:30:12.315Z,1547.00
2023-05-09T11:31:12.049Z,1530.00
2023-05-09T11:32:12.115Z,1505.00
2023-05-09T11:33:12.095Z,1494.00
2023-05-09T11:34:12.071Z,1481.00
2023-05-09T11:35:12.241Z,1473.00
2023-05-09T11:36:12.059Z,1470.00
2023-05-09T11:37:12.144Z,1462.00
2023-05-09T11:38:12.048Z,1449.00
2023-05-09T11:39:12.062Z,1444.00
2023-05-09T11:40:12.102Z,1439.00
2023-05-09T11:41:12.072Z,1431.00
2023-05-09T11:42:12.086Z,1412.00
2023-05-09T11:43:12.219Z,1344.00
2023-05-09T11:44:12.141Z,1351.00
2023-05-09T11:45:12.201Z,1351.00
2023-05-09T11:46:12.177Z,1352.00
2023-05-09T11:47:12.146Z,1347.00
2023-05-09T11:48:12.172Z,1344.00
2023-05-09T11:49:12.467Z,1318.00
2023-05-09T11:50:12.198Z,1306.00
2023-05-09T11:51:12.233Z,1293.00
2023-05-09T11:52:12.258Z,1285.00
2023-05-09T11:53:12.370Z,1279.00
2023-05-09T11:54:12.306Z,1277.00
2023-05-09T11:55:12.800Z,1247.00
2023-05-09T11:56:12.340Z,1243.00
2023-05-09T11:57:12.360Z,1226.00
2023-05-09T11:58:12.376Z,1215.00
2023-05-09T11:59:12.424Z,1142.00
2023-05-09T12:00:12.458Z,1154.00
2023-05-09T12:01:12.540Z,1159.00
2023-05-09T12:02:12.624Z,1152.00
2023-05-09T12:03:12.674Z,1135.00
2023-05-09T12:04:12.613Z,1145.00
2023-05-09T12:05:12.836Z,1153.00
2023-05-09T12:06:12.696Z,1150.00
2023-05-09T12:07:12.678Z,1075.00
2023-05-09T12:08:12.713Z,1082.00
2023-05-09T12:09:12.843Z,1083.00
2023-05-09T12:10:12.802Z,1069.00
2023-05-09T12:11:12.833Z,1064.00
2023-05-09T12:12:12.878Z,1083.00
2023-05-09T12:13:13.213Z,1088.00
2023-05-09T12:14:13.801Z,1083.00
2023-05-09T12:15:14.204Z,1074.00
2023-05-09T12:16:13.100Z,844.00
2023-05-09T12:17:13.798Z,865.00